Time;durP1;ratioP1;P1;durP2;ratioP2;P2;SDS_P1;SDS_P2;PMS_P1;PMS_P2;Temp;Humidity;BMP_temperature;BMP_pressure;BME280_temperature;BME280_humidity;BME280_pressure;Samples;Min_cycle;Max_cycle;Signal;HPM_P1;HPM_P2
2022/04/23 00:01:35;;;;;;;;;;;10.00;92.00;;;;;;5121549;28;19952;-66
2022/04/23 00:04:01;;;;;;;;;;;9.90;92.00;;;;;;5121892;28;19912;-65
2022/04/23 00:06:27;;;;;;;;;;;10.00;92.00;;;;;;5103543;28;19908;-66
2022/04/23 00:08:52;;;;;;;;;;;9.90;92.10;;;;;;5121745;28;19908;-66
2022/04/23 00:11:18;;;;;;;;;;;9.90;92.30;;;;;;5121488;28;19907;-66
2022/04/23 00:13:44;;;;;;;;;;;9.80;92.30;;;;;;5133993;28;19914;-66
2022/04/23 00:16:10;;;;;;;;;;;9.80;92.40;;;;;;5142231;28;19923;-66
2022/04/23 00:18:36;;;;;;;;;;;9.70;92.50;;;;;;5123924;28;20144;-66
2022/04/23 00:21:03;;;;;;;;;;;9.70;92.60;;;;;;5141818;28;19970;-66
2022/04/23 00:23:31;;;;;;;;;;;9.60;92.80;;;;;;5142153;28;19907;-66
2022/04/23 00:25:58;;;;;;;;;;;9.50;93.00;;;;;;5126187;28;19975;-66
2022/04/23 00:28:24;;;;;;;;;;;9.40;93.20;;;;;;5120998;28;19908;-66
2022/04/23 00:30:52;;;;;;;;;;;9.40;93.20;;;;;;5103301;28;19923;-66
2022/04/23 00:33:18;;;;;;;;;;;9.30;93.40;;;;;;5121548;28;19907;-66
2022/04/23 00:35:44;;;;;;;;;;;9.30;93.50;;;;;;5121368;28;19915;-66
2022/04/23 00:38:10;;;;;;;;;;;9.30;93.50;;;;;;5122162;28;20011;-67
2022/04/23 00:40:38;;;;;;;;;;;9.40;93.50;;;;;;5120620;28;20110;-67
2022/04/23 00:43:10;;;;;;;;;;;9.30;93.50;;;;;;5121749;28;19908;-66
2022/04/23 00:45:36;;;;;;;;;;;9.30;93.60;;;;;;5104453;28;21368;-67
2022/04/23 00:48:01;;;;;;;;;;;9.30;93.60;;;;;;5103339;28;19975;-67
2022/04/23 00:50:27;;;;;;;;;;;9.20;93.70;;;;;;5121467;28;19922;-67
2022/04/23 00:52:56;;;;;;;;;;;9.30;93.70;;;;;;5121463;28;19908;-67
2022/04/23 00:55:22;;;;;;;;;;;9.20;93.70;;;;;;5121285;28;19907;-68
2022/04/23 00:57:48;;;;;;;;;;;9.10;93.90;;;;;;5120008;28;19915;-67
2022/04/23 01:00:14;;;;;;;;;;;9.10;93.90;;;;;;5125380;28;20013;-67
2022/04/23 01:02:40;;;;;;;;;;;9.00;94.00;;;;;;5124975;28;19988;-68
2022/04/23 01:05:09;;;;;;;;;;;9.00;94.20;;;;;;5125340;28;19911;-67
2022/04/23 01:07:41;;;;;;;;;;;9.00;94.20;;;;;;5124995;28;19922;-67
2022/04/23 01:10:07;;;;;;;;;;;8.90;94.30;;;;;;5106715;28;19935;-67
2022/04/23 01:12:36;;;;;;;;;;;9.00;94.20;;;;;;5106687;28;19908;-67
2022/04/23 01:15:04;;;;;;;;;;;9.00;94.10;;;;;;5124932;28;19956;-67
2022/04/23 01:17:29;;;;;;;;;;;9.00;94.20;;;;;;5123666;28;20008;-67
2022/04/23 01:19:55;;;;;;;;;;;8.90;94.40;;;;;;5138919;27;20292;-67
2022/04/23 01:22:23;;;;;;;;;;;8.90;94.40;;;;;;5145332;27;20134;-67
2022/04/23 01:24:50;;;;;;;;;;;9.00;94.50;;;;;;5126762;27;19908;-68
2022/04/23 01:27:16;;;;;;;;;;;9.00;94.40;;;;;;5110172;27;19912;-67
2022/04/23 01:29:42;;;;;;;;;;;9.00;94.40;;;;;;5145313;27;19908;-67
2022/04/23 01:32:07;;;;;;;;;;;8.90;94.50;;;;;;5145154;27;20036;-67
2022/04/23 01:34:33;;;;;;;;;;;8.80;94.50;;;;;;5145683;27;20261;-67
2022/04/23 01:36:59;;;;;;;;;;;8.80;94.50;;;;;;5145079;27;19934;-66
2022/04/23 01:39:24;;;;;;;;;;;8.80;94.60;;;;;;5137687;27;20010;-67
2022/04/23 01:41:50;;;;;;;;;;;8.70;94.60;;;;;;5124390;28;19983;-67
2022/04/23 01:44:16;;;;;;;;;;;8.70;94.70;;;;;;5124719;28;20198;-67
2022/04/23 01:46:41;;;;;;;;;;;8.70;94.80;;;;;;5124584;28;19978;-67
2022/04/23 01:49:07;;;;;;;;;;;8.70;94.80;;;;;;5124595;28;20412;-67
2022/04/23 01:51:33;;;;;;;;;;;8.60;94.80;;;;;;5126206;27;19915;-67
2022/04/23 01:53:58;;;;;;;;;;;8.70;94.90;;;;;;5144879;27;19911;-67
2022/04/23 01:56:25;;;;;;;;;;;8.70;94.80;;;;;;5144951;27;19907;-67
2022/04/23 01:58:51;;;;;;;;;;;8.70;95.00;;;;;;5144855;27;19915;-67
2022/04/23 02:01:17;;;;;;;;;;;8.70;95.20;;;;;;5132108;27;19916;-67
2022/04/23 02:03:43;;;;;;;;;;;8.70;95.10;;;;;;5124262;28;20120;-68
2022/04/23 02:06:09;;;;;;;;;;;8.70;95.20;;;;;;5106104;28;19907;-67
2022/04/23 02:08:34;;;;;;;;;;;8.80;95.20;;;;;;5124122;28;19914;-67
2022/04/23 02:11:00;;;;;;;;;;;8.80;95.30;;;;;;5122567;28;20111;-67
2022/04/23 02:13:27;;;;;;;;;;;8.90;95.20;;;;;;5123499;28;19987;-67
2022/04/23 02:15:52;;;;;;;;;;;8.90;95.10;;;;;;5123673;28;19990;-67
2022/04/23 02:18:21;;;;;;;;;;;8.80;95.40;;;;;;5105548;28;19987;-67
2022/04/23 02:20:47;;;;;;;;;;;8.80;95.30;;;;;;5123571;28;19979;-67
2022/04/23 02:23:12;;;;;;;;;;;8.80;95.50;;;;;;5123977;28;20428;-67
2022/04/23 02:25:38;;;;;;;;;;;8.70;95.60;;;;;;5134650;27;20183;-67
2022/04/23 02:28:04;;;;;;;;;;;8.60;95.70;;;;;;5143867;27;19920;-67
2022/04/23 02:30:30;;;;;;;;;;;8.60;95.90;;;;;;5143724;27;19923;-67
2022/04/23 02:32:55;;;;;;;;;;;8.60;96.00;;;;;;5125553;27;19992;-67
2022/04/23 02:35:21;;;;;;;;;;;8.50;96.20;;;;;;5132152;27;19978;-67
2022/04/23 02:37:47;;;;;;;;;;;8.50;96.40;;;;;;5122949;28;19922;-67
2022/04/23 02:40:13;;;;;;;;;;;8.50;96.90;;;;;;5122827;28;19990;-67
2022/04/23 02:42:39;;;;;;;;;;;8.40;97.30;;;;;;5123212;28;19907;-67
2022/04/23 02:45:06;;;;;;;;;;;8.40;97.90;;;;;;5123422;28;19950;-67
2022/04/23 02:47:45;;;;;;;;;;;8.40;98.40;;;;;;5123226;28;19907;-67
2022/04/23 02:50:12;;;;;;;;;;;8.30;99.00;;;;;;5123443;28;19915;-67
2022/04/23 02:52:40;;;;;;;;;;;8.30;99.40;;;;;;5123046;28;19908;-67
2022/04/23 02:55:06;;;;;;;;;;;8.30;99.50;;;;;;5123260;28;20218;-67
2022/04/23 02:57:32;;;;;;;;;;;8.30;99.60;;;;;;5122959;28;19970;-67
2022/04/23 02:59:57;;;;;;;;;;;8.30;99.80;;;;;;5123209;28;20226;-67
2022/04/23 03:02:23;;;;;;;;;;;8.30;99.80;;;;;;5122661;28;19915;-67
2022/04/23 03:04:49;;;;;;;;;;;8.30;99.90;;;;;;5123111;28;19987;-67
2022/04/23 03:07:14;;;;;;;;;;;8.30;99.90;;;;;;5122996;28;19911;-65
2022/04/23 03:09:40;;;;;;;;;;;8.30;99.90;;;;;;5122739;28;19908;-65
2022/04/23 03:12:06;;;;;;;;;;;8.30;99.90;;;;;;5122728;28;19915;-66
2022/04/23 03:14:32;;;;;;;;;;;8.30;99.90;;;;;;5123195;28;19914;-66
2022/04/23 03:16:58;;;;;;;;;;;8.40;99.90;;;;;;5122542;28;20183;-66
2022/04/23 03:19:24;;;;;;;;;;;8.40;99.90;;;;;;5122955;28;19916;-66
2022/04/23 03:21:51;;;;;;;;;;;8.40;99.90;;;;;;5122140;28;20265;-66
2022/04/23 03:24:16;;;;;;;;;;;8.40;99.90;;;;;;5122584;28;19907;-66
2022/04/23 03:26:45;;;;;;;;;;;8.40;99.90;;;;;;5122748;28;19919;-66
2022/04/23 03:29:11;;;;;;;;;;;8.50;98.90;;;;;;5122809;28;20094;-66
2022/04/23 03:31:37;;;;;;;;;;;8.50;98.00;;;;;;5121983;28;19952;-67
2022/04/23 03:34:03;;;;;;;;;;;8.50;98.60;;;;;;5122535;28;19980;-66
2022/04/23 03:36:28;;;;;;;;;;;8.40;97.90;;;;;;5122061;28;19908;-66
2022/04/23 03:38:54;;;;;;;;;;;8.40;98.00;;;;;;5122526;28;19920;-66
2022/04/23 03:41:20;;;;;;;;;;;8.30;98.20;;;;;;5121470;28;20228;-67
2022/04/23 03:43:45;;;;;;;;;;;8.20;98.70;;;;;;5122470;28;19915;-67
2022/04/23 03:46:12;;;;;;;;;;;8.20;98.80;;;;;;5103774;28;19911;-67
2022/04/23 03:48:37;;;;;;;;;;;8.20;99.00;;;;;;5121809;28;19935;-67
2022/04/23 03:51:03;;;;;;;;;;;8.10;99.00;;;;;;5121560;28;19923;-67
2022/04/23 03:53:29;;;;;;;;;;;8.10;99.00;;;;;;5121960;28;19984;-67
2022/04/23 03:55:54;;;;;;;;;;;8.10;99.00;;;;;;5121552;28;19908;-67
2022/04/23 03:58:20;;;;;;;;;;;8.00;99.10;;;;;;5121627;28;20073;-67
2022/04/23 04:00:46;;;;;;;;;;;8.00;99.40;;;;;;5121518;28;19922;-67
2022/04/23 04:03:11;;;;;;;;;;;8.00;99.40;;;;;;5121732;28;19907;-67
2022/04/23 04:05:37;;;;;;;;;;;8.00;99.60;;;;;;5121739;28;19908;-67
2022/04/23 04:08:03;;;;;;;;;;;7.90;99.80;;;;;;5121631;28;20007;-67
2022/04/23 04:10:28;;;;;;;;;;;7.90;99.90;;;;;;5121357;28;19920;-66
2022/04/23 04:12:54;;;;;;;;;;;8.00;99.90;;;;;;5121776;28;20099;-66
2022/04/23 04:15:20;;;;;;;;;;;8.00;99.90;;;;;;5122116;28;20137;-66
2022/04/23 04:17:48;;;;;;;;;;;8.10;99.90;;;;;;5121773;28;19985;-66
2022/04/23 04:20:14;;;;;;;;;;;8.30;99.90;;;;;;5121961;28;19991;-66
2022/04/23 04:22:40;;;;;;;;;;;8.30;99.90;;;;;;5121634;28;19908;-65
2022/04/23 04:25:06;;;;;;;;;;;8.30;99.90;;;;;;5121511;28;19908;-66
2022/04/23 04:27:33;;;;;;;;;;;8.30;99.90;;;;;;5121729;28;19907;-66
2022/04/23 04:30:00;;;;;;;;;;;8.30;99.90;;;;;;5121950;28;19979;-66
2022/04/23 04:32:26;;;;;;;;;;;8.40;99.90;;;;;;5121551;28;19947;-66
2022/04/23 04:34:51;;;;;;;;;;;8.40;99.90;;;;;;5125044;28;19935;-66
2022/04/23 04:37:17;;;;;;;;;;;8.40;99.90;;;;;;5125074;28;20117;-66
2022/04/23 04:39:43;;;;;;;;;;;8.50;99.70;;;;;;5125069;28;19920;-66
2022/04/23 04:42:09;;;;;;;;;;;8.50;99.60;;;;;;5125371;28;19966;-66
2022/04/23 04:44:35;;;;;;;;;;;8.50;99.30;;;;;;5124803;28;20438;-66
2022/04/23 04:47:01;;;;;;;;;;;8.60;99.20;;;;;;5124904;28;19935;-66
2022/04/23 04:49:26;;;;;;;;;;;8.60;99.30;;;;;;5119517;27;20119;-65
2022/04/23 04:51:52;;;;;;;;;;;8.60;99.30;;;;;;5125089;28;19907;-65
2022/04/23 04:54:18;;;;;;;;;;;8.70;99.10;;;;;;5125371;28;19946;-66
2022/04/23 04:56:51;;;;;;;;;;;8.70;98.90;;;;;;5125229;28;19912;-65
2022/04/23 04:59:17;;;;;;;;;;;8.80;99.00;;;;;;5125260;28;19913;-66
2022/04/23 05:01:43;;;;;;;;;;;8.80;99.00;;;;;;5125048;28;20002;-66
2022/04/23 05:04:08;;;;;;;;;;;8.80;98.70;;;;;;5138320;27;20248;-65
2022/04/23 05:06:35;;;;;;;;;;;8.90;98.80;;;;;;5145813;27;20195;-65
2022/04/23 05:09:01;;;;;;;;;;;8.90;98.80;;;;;;5145657;27;19907;-66
2022/04/23 05:11:26;;;;;;;;;;;9.10;98.70;;;;;;5128183;27;19915;-66
2022/04/23 05:13:52;;;;;;;;;;;9.10;98.40;;;;;;5125003;28;19912;-65
2022/04/23 05:16:18;;;;;;;;;;;9.20;98.50;;;;;;5124937;28;19922;-66
2022/04/23 05:18:43;;;;;;;;;;;9.20;98.60;;;;;;5143695;27;19986;-65
2022/04/23 05:21:09;;;;;;;;;;;9.40;98.30;;;;;;5145190;27;19908;-66
2022/04/23 05:23:35;;;;;;;;;;;9.40;98.00;;;;;;5145455;27;20143;-65
2022/04/23 05:26:01;;;;;;;;;;;9.40;98.00;;;;;;5120074;27;19919;-66
2022/04/23 05:28:27;;;;;;;;;;;9.60;97.90;;;;;;5121710;28;19934;-65
2022/04/23 05:30:53;;;;;;;;;;;9.70;97.90;;;;;;5114352;28;19986;-65
2022/04/23 05:33:19;;;;;;;;;;;9.70;98.20;;;;;;5124163;28;19916;-66
2022/04/23 05:35:44;;;;;;;;;;;9.70;98.10;;;;;;5124646;28;19908;-66
2022/04/23 05:38:10;;;;;;;;;;;9.80;98.20;;;;;;5124151;28;19919;-65
2022/04/23 05:40:35;;;;;;;;;;;9.80;98.20;;;;;;5123311;28;19923;-65
2022/04/23 05:43:01;;;;;;;;;;;9.80;98.00;;;;;;5124334;28;20244;-66
2022/04/23 05:45:28;;;;;;;;;;;10.00;97.90;;;;;;5124222;28;19912;-66
2022/04/23 05:47:54;;;;;;;;;;;10.10;97.60;;;;;;5124079;28;20219;-66
2022/04/23 05:50:20;;;;;;;;;;;10.30;97.20;;;;;;5124200;28;19952;-65
2022/04/23 05:52:45;;;;;;;;;;;10.40;97.30;;;;;;5123998;28;19908;-66
2022/04/23 05:55:11;;;;;;;;;;;10.30;97.20;;;;;;5123802;28;20146;-65
2022/04/23 05:57:37;;;;;;;;;;;10.60;96.90;;;;;;5123086;28;19919;-65
2022/04/23 06:00:07;;;;;;;;;;;10.70;96.40;;;;;;5121421;28;19959;-65
2022/04/23 06:02:33;;;;;;;;;;;10.70;96.70;;;;;;5122976;28;19985;-66
2022/04/23 06:04:59;;;;;;;;;;;10.70;96.80;;;;;;5123423;28;19927;-65
2022/04/23 06:07:24;;;;;;;;;;;10.70;96.40;;;;;;5123994;28;19912;-66
2022/04/23 06:09:50;;;;;;;;;;;10.80;96.10;;;;;;5123721;28;19979;-66
2022/04/23 06:12:16;;;;;;;;;;;10.90;96.40;;;;;;5123069;28;20161;-66
2022/04/23 06:14:41;;;;;;;;;;;11.20;95.60;;;;;;5123706;28;19912;-66
2022/04/23 06:17:12;;;;;;;;;;;11.30;94.90;;;;;;5123444;28;19916;-66
2022/04/23 06:19:38;;;;;;;;;;;11.50;94.40;;;;;;5123505;28;20014;-66
2022/04/23 06:22:04;;;;;;;;;;;11.50;94.90;;;;;;5123337;28;19908;-66
2022/04/23 06:24:30;;;;;;;;;;;11.50;95.20;;;;;;5104720;28;20168;-66
2022/04/23 06:26:56;;;;;;;;;;;11.50;95.10;;;;;;5104877;28;19969;-66
2022/04/23 06:29:21;;;;;;;;;;;11.50;95.60;;;;;;5123048;28;19911;-66
2022/04/23 06:31:47;;;;;;;;;;;11.60;95.30;;;;;;5122771;28;19908;-66
2022/04/23 06:34:13;;;;;;;;;;;11.80;95.20;;;;;;5104765;28;19990;-66
2022/04/23 06:36:40;;;;;;;;;;;12.00;94.60;;;;;;5123317;28;19950;-66
2022/04/23 06:39:06;;;;;;;;;;;12.00;93.90;;;;;;5122922;28;19946;-65
2022/04/23 06:41:32;;;;;;;;;;;12.20;93.70;;;;;;5103868;28;19915;-66
2022/04/23 06:43:58;;;;;;;;;;;12.20;93.80;;;;;;5122753;28;19919;-65
2022/04/23 06:46:23;;;;;;;;;;;12.20;93.90;;;;;;5104371;28;19912;-66
2022/04/23 06:48:49;;;;;;;;;;;12.40;93.70;;;;;;5123097;28;20163;-66
2022/04/23 06:51:15;;;;;;;;;;;12.60;93.90;;;;;;5122724;28;19989;-65
2022/04/23 06:53:41;;;;;;;;;;;12.80;93.50;;;;;;5122936;28;19945;-67
2022/04/23 06:56:07;;;;;;;;;;;12.90;92.90;;;;;;5121742;28;19927;-65
2022/04/23 06:58:32;;;;;;;;;;;13.10;92.70;;;;;;5122291;28;20107;-66
2022/04/23 07:00:58;;;;;;;;;;;13.10;93.30;;;;;;5122323;28;20171;-65
2022/04/23 07:03:25;;;;;;;;;;;13.10;91.40;;;;;;5122516;28;19931;-66
2022/04/23 07:05:51;;;;;;;;;;;12.90;90.80;;;;;;5122573;28;19956;-66
2022/04/23 07:08:17;;;;;;;;;;;12.80;88.50;;;;;;5122550;28;19915;-66
2022/04/23 07:10:44;;;;;;;;;;;12.70;90.50;;;;;;5122145;28;19923;-66
2022/04/23 07:13:10;;;;;;;;;;;12.80;85.60;;;;;;5122525;28;19935;-66
2022/04/23 07:15:36;;;;;;;;;;;12.80;83.80;;;;;;5104618;28;19977;-65
2022/04/23 07:18:02;;;;;;;;;;;12.80;83.10;;;;;;5121789;27;19920;-65
2022/04/23 07:20:27;;;;;;;;;;;12.80;83.80;;;;;;5122154;28;19919;-65
2022/04/23 07:25:37;;;;;;;;;;;13.00;83.90;;;;;;5122244;28;19931;-65
2022/04/23 07:28:03;;;;;;;;;;;13.10;87.70;;;;;;5122318;28;20211;-66
2022/04/23 07:30:29;;;;;;;;;;;13.10;83.30;;;;;;5122423;28;19993;-65
2022/04/23 07:32:55;;;;;;;;;;;13.30;87.60;;;;;;5122217;28;19916;-65
2022/04/23 07:38:23;;;;;;;;;;;13.00;82.20;;;;;;5121111;28;19962;-66
2022/04/23 07:40:50;;;;;;;;;;;13.10;86.50;;;;;;5121008;28;20095;-66
2022/04/23 07:43:16;;;;;;;;;;;13.20;85.00;;;;;;5121272;28;20224;-66
2022/04/23 07:45:43;;;;;;;;;;;13.50;86.30;;;;;;5122083;28;20252;-65
2022/04/23 07:48:09;;;;;;;;;;;13.50;85.20;;;;;;5123855;27;20129;-66
2022/04/23 07:50:36;;;;;;;;;;;13.50;83.10;;;;;;5123830;27;19979;-65
2022/04/23 07:53:02;;;;;;;;;;;13.60;84.70;;;;;;5142507;27;20107;-65
2022/04/23 07:55:33;;;;;;;;;;;13.60;82.00;;;;;;5142861;27;20192;-66
2022/04/23 07:58:03;;;;;;;;;;;13.70;84.60;;;;;;5134231;27;20161;-65
2022/04/23 08:00:34;;;;;;;;;;;13.60;84.10;;;;;;5121811;28;19912;-66
2022/04/23 08:02:59;;;;;;;;;;;13.40;82.70;;;;;;5121839;27;19930;-66
2022/04/23 08:05:25;;;;;;;;;;;13.40;82.30;;;;;;5121851;28;20262;-65
2022/04/23 08:07:51;;;;;;;;;;;13.40;84.60;;;;;;5120439;28;19919;-66
2022/04/23 08:10:17;;;;;;;;;;;13.20;82.60;;;;;;5121563;28;19943;-66
2022/04/23 08:12:42;;;;;;;;;;;13.20;84.60;;;;;;5121623;28;20430;-66
2022/04/23 08:15:09;;;;;;;;;;;13.20;83.10;;;;;;5103686;28;20255;-66
2022/04/23 08:17:34;;;;;;;;;;;13.20;85.30;;;;;;5121869;28;19914;-66
2022/04/23 08:20:00;;;;;;;;;;;13.10;85.60;;;;;;5121710;28;19919;-66
2022/04/23 08:22:26;;;;;;;;;;;13.10;86.00;;;;;;5121546;28;20230;-66
2022/04/23 08:24:51;;;;;;;;;;;13.10;84.20;;;;;;5121552;28;20003;-65
2022/04/23 08:27:17;;;;;;;;;;;13.10;86.20;;;;;;5121702;28;20111;-66
2022/04/23 08:32:27;;;;;;;;;;;12.90;82.40;;;;;;5105575;28;19957;-66
2022/04/23 08:34:53;;;;;;;;;;;13.10;87.40;;;;;;5121821;28;20144;-66
2022/04/23 08:37:22;;;;;;;;;;;13.00;87.80;;;;;;5121328;28;20442;-65
2022/04/23 08:39:48;;;;;;;;;;;13.00;86.40;;;;;;5119936;28;19920;-65
2022/04/23 08:42:16;;;;;;;;;;;13.00;86.70;;;;;;5116487;28;19973;-65
2022/04/23 08:44:42;;;;;;;;;;;12.80;88.60;;;;;;5121660;28;20025;-65
2022/04/23 08:47:08;;;;;;;;;;;12.70;87.30;;;;;;5121479;28;20000;-65
2022/04/23 08:49:34;;;;;;;;;;;12.60;84.90;;;;;;5120207;28;20077;-64
2022/04/23 08:52:32;;;;;;;;;;;12.50;86.10;;;;;;5103223;28;19930;-65
2022/04/23 08:55:01;;;;;;;;;;;12.50;89.80;;;;;;5121513;28;19954;-65
2022/04/23 08:57:28;;;;;;;;;;;12.30;90.20;;;;;;5120045;28;20017;-65
2022/04/23 08:59:56;;;;;;;;;;;12.20;87.30;;;;;;5118789;28;19984;-64
2022/04/23 09:02:26;;;;;;;;;;;12.20;85.50;;;;;;5124634;28;20187;-66
2022/04/23 09:04:53;;;;;;;;;;;12.20;85.90;;;;;;5141864;28;19929;-65
2022/04/23 09:07:20;;;;;;;;;;;12.20;85.50;;;;;;5141865;28;19918;-66
2022/04/23 09:09:49;;;;;;;;;;;12.30;85.20;;;;;;5117430;28;19964;-66
2022/04/23 09:12:17;;;;;;;;;;;12.50;84.90;;;;;;5117949;28;20244;-65
2022/04/23 09:14:44;;;;;;;;;;;12.70;87.40;;;;;;5121577;28;20198;-66
2022/04/23 09:25:37;;;;;;;;;;;13.70;83.40;;;;;;5124535;28;19922;-66
2022/04/23 09:28:22;;;;;;;;;;;13.80;83.40;;;;;;5123587;28;19923;-66
2022/04/23 09:30:49;;;;;;;;;;;14.00;81.30;;;;;;5123965;28;19919;-67
2022/04/23 09:33:15;;;;;;;;;;;14.10;80.80;;;;;;5124932;28;19978;-66
2022/04/23 09:36:00;;;;;;;;;;;13.90;79.10;;;;;;5124724;28;19916;-66
2022/04/23 09:38:26;;;;;;;;;;;13.90;80.60;;;;;;5122915;28;19916;-66
2022/04/23 09:40:56;;;;;;;;;;;13.80;79.40;;;;;;5117010;28;20111;-64
2022/04/23 09:43:25;;;;;;;;;;;13.90;80.40;;;;;;5139245;27;19941;-64
2022/04/23 09:46:08;;;;;;;;;;;13.70;76.50;;;;;;5145055;27;19938;-64
2022/04/23 09:48:43;;;;;;;;;;;13.80;80.90;;;;;;5144846;27;19945;-64
2022/04/23 09:51:24;;;;;;;;;;;13.90;79.90;;;;;;5144686;27;19926;-64
2022/04/23 09:53:53;;;;;;;;;;;14.00;75.90;;;;;;5144751;27;19979;-66
2022/04/23 09:56:23;;;;;;;;;;;14.10;75.30;;;;;;5127034;27;19908;-67
2022/04/23 09:58:49;;;;;;;;;;;14.10;75.80;;;;;;5129429;27;19908;-66
2022/04/23 10:01:17;;;;;;;;;;;14.10;74.70;;;;;;5123783;28;19973;-66
2022/04/23 10:03:44;;;;;;;;;;;14.20;75.20;;;;;;5090323;28;20118;-66
2022/04/23 10:06:10;;;;;;;;;;;14.30;77.80;;;;;;5124014;28;20106;-66
2022/04/23 10:08:36;;;;;;;;;;;14.50;78.00;;;;;;5124691;28;19935;-66
2022/04/23 10:11:02;;;;;;;;;;;14.80;73.50;;;;;;5124642;28;19915;-66
2022/04/23 10:13:29;;;;;;;;;;;15.00;72.70;;;;;;5129531;27;19915;-66
2022/04/23 10:15:54;;;;;;;;;;;15.20;71.40;;;;;;5145573;27;19908;-66
2022/04/23 10:18:21;;;;;;;;;;;15.10;69.80;;;;;;5145508;27;19931;-66
2022/04/23 10:21:08;;;;;;;;;;;14.90;73.00;;;;;;5145017;27;20258;-67
2022/04/23 10:24:01;;;;;;;;;;;14.80;72.30;;;;;;5130544;27;19946;-67
2022/04/23 10:26:45;;;;;;;;;;;14.90;72.10;;;;;;5144969;27;19908;-64
2022/04/23 10:29:14;;;;;;;;;;;14.70;71.20;;;;;;5127033;27;19911;-67
2022/04/23 10:31:41;;;;;;;;;;;14.60;74.50;;;;;;5143117;27;19907;-67
2022/04/23 10:34:32;;;;;;;;;;;14.50;73.40;;;;;;5106788;28;20088;-65
2022/04/23 10:37:19;;;;;;;;;;;14.50;72.90;;;;;;5124376;28;19930;-65
2022/04/23 10:40:10;;;;;;;;;;;14.60;74.00;;;;;;5124708;28;19926;-65
2022/04/23 10:42:38;;;;;;;;;;;14.90;74.00;;;;;;5123999;28;19908;-65
2022/04/23 10:45:06;;;;;;;;;;;14.90;72.80;;;;;;5101770;28;20017;-67
2022/04/23 10:47:39;;;;;;;;;;;15.10;73.90;;;;;;5123553;28;19996;-66
2022/04/23 10:52:39;;;;;;;;;;;15.10;74.10;;;;;;5103667;28;19918;-65
2022/04/23 10:55:06;;;;;;;;;;;15.30;73.40;;;;;;5103741;28;19909;-65
2022/04/23 10:57:31;;;;;;;;;;;15.20;73.70;;;;;;5103548;28;19908;-65
2022/04/23 11:00:11;;;;;;;;;;;15.10;75.10;;;;;;5103729;28;19935;-66
2022/04/23 11:02:39;;;;;;;;;;;15.20;75.30;;;;;;5096006;28;19916;-65
2022/04/23 11:13:58;;;;;;;;;;;15.00;74.30;;;;;;5123904;28;19997;-64
2022/04/23 11:16:25;;;;;;;;;;;15.00;74.10;;;;;;5123826;28;19908;-65
2022/04/23 11:18:55;;;;;;;;;;;15.10;73.90;;;;;;5105350;28;19919;-65
2022/04/23 11:21:26;;;;;;;;;;;14.90;73.60;;;;;;5123174;28;20111;-65
2022/04/23 11:23:53;;;;;;;;;;;14.90;75.00;;;;;;5123471;28;20199;-65
2022/04/23 11:26:26;;;;;;;;;;;14.90;75.90;;;;;;5123558;28;19912;-66
2022/04/23 11:28:58;;;;;;;;;;;14.80;73.80;;;;;;5106517;28;20249;-65
2022/04/23 11:31:24;;;;;;;;;;;14.90;74.20;;;;;;5123351;28;19908;-66
2022/04/23 11:33:57;;;;;;;;;;;15.00;74.00;;;;;;5123402;28;19984;-66
2022/04/23 11:36:27;;;;;;;;;;;15.00;73.80;;;;;;5123661;28;19914;-65
2022/04/23 11:38:54;;;;;;;;;;;15.00;73.20;;;;;;5123388;28;19951;-66
2022/04/23 11:41:27;;;;;;;;;;;15.20;74.00;;;;;;5122227;28;19919;-66
2022/04/23 11:43:53;;;;;;;;;;;15.40;74.00;;;;;;5123151;28;19916;-66
2022/04/23 11:46:18;;;;;;;;;;;15.50;71.50;;;;;;5105204;28;20203;-66
2022/04/23 11:48:46;;;;;;;;;;;15.60;70.80;;;;;;5123242;28;19908;-66
2022/04/23 11:51:13;;;;;;;;;;;15.60;70.60;;;;;;5122982;28;20204;-66
2022/04/23 11:53:52;;;;;;;;;;;15.60;71.40;;;;;;5123412;28;19937;-66
2022/04/23 11:56:36;;;;;;;;;;;15.70;71.80;;;;;;5122900;28;19916;-65
2022/04/23 11:59:07;;;;;;;;;;;15.90;70.00;;;;;;5123179;28;19912;-66
2022/04/23 12:01:33;;;;;;;;;;;16.20;70.40;;;;;;5123035;28;19980;-65
2022/04/23 12:03:59;;;;;;;;;;;16.50;69.70;;;;;;5123114;28;19911;-66
2022/04/23 12:06:25;;;;;;;;;;;16.50;70.00;;;;;;5123057;28;19912;-66
2022/04/23 12:08:51;;;;;;;;;;;16.30;68.80;;;;;;5123095;28;19915;-66
2022/04/23 12:11:24;;;;;;;;;;;16.30;70.10;;;;;;5108138;28;19923;-66
2022/04/23 12:13:51;;;;;;;;;;;16.30;68.90;;;;;;5123134;28;19949;-66
2022/04/23 12:16:39;;;;;;;;;;;16.40;69.40;;;;;;5088589;28;19939;-65
2022/04/23 12:19:10;;;;;;;;;;;16.20;66.50;;;;;;5104644;28;20250;-66
2022/04/23 12:21:36;;;;;;;;;;;16.20;68.80;;;;;;5122494;28;19908;-66
2022/04/23 12:24:02;;;;;;;;;;;16.40;69.70;;;;;;5122940;28;19931;-65
2022/04/23 12:26:32;;;;;;;;;;;16.20;68.20;;;;;;5122715;28;19920;-65
2022/04/23 12:42:21;;;;;;;;;;;16.00;68.30;;;;;;5122195;28;20208;-65
2022/04/23 12:44:46;;;;;;;;;;;16.10;70.00;;;;;;5122625;28;19908;-66
2022/04/23 12:47:20;;;;;;;;;;;16.30;68.50;;;;;;5104381;28;19945;-66
2022/04/23 12:49:50;;;;;;;;;;;16.60;67.80;;;;;;5122806;28;19929;-66
2022/04/23 12:52:21;;;;;;;;;;;16.70;65.90;;;;;;5122342;28;19991;-66
2022/04/23 12:55:15;;;;;;;;;;;16.50;66.20;;;;;;5124104;28;19908;-65
2022/04/23 12:57:49;;;;;;;;;;;16.40;66.40;;;;;;5126119;28;19914;-66
2022/04/23 13:00:19;;;;;;;;;;;16.40;66.70;;;;;;5126649;28;19951;-66
2022/04/23 13:02:47;;;;;;;;;;;16.50;67.20;;;;;;5126167;28;19953;-66
2022/04/23 13:05:13;;;;;;;;;;;16.50;64.20;;;;;;5126417;28;19922;-66
2022/04/23 13:10:23;;;;;;;;;;;16.30;65.60;;;;;;5126417;28;20135;-65
2022/04/23 13:12:49;;;;;;;;;;;16.50;65.70;;;;;;5125870;28;19907;-65
2022/04/23 13:15:17;;;;;;;;;;;16.80;67.40;;;;;;5126235;28;20256;-66
2022/04/23 13:17:43;;;;;;;;;;;16.90;66.30;;;;;;5126002;28;19915;-65
2022/04/23 13:20:10;;;;;;;;;;;16.80;65.60;;;;;;5125744;28;19951;-65
2022/04/23 13:22:35;;;;;;;;;;;16.80;66.80;;;;;;5107508;28;20107;-65
2022/04/23 13:25:05;;;;;;;;;;;16.60;67.40;;;;;;5125680;28;19922;-65
2022/04/23 13:27:31;;;;;;;;;;;16.50;67.00;;;;;;5125516;28;19984;-65
2022/04/23 13:29:57;;;;;;;;;;;16.50;69.60;;;;;;5125884;28;19944;-65
2022/04/23 13:32:23;;;;;;;;;;;16.40;68.90;;;;;;5125465;28;19916;-65
2022/04/23 13:34:49;;;;;;;;;;;16.40;67.80;;;;;;5125855;28;19916;-65
2022/04/23 13:37:14;;;;;;;;;;;16.30;68.60;;;;;;5106492;28;19912;-65
2022/04/23 13:39:40;;;;;;;;;;;16.30;68.00;;;;;;5122857;28;19922;-65
2022/04/23 13:42:06;;;;;;;;;;;16.40;69.20;;;;;;5124190;28;19908;-66
2022/04/23 13:44:32;;;;;;;;;;;16.40;68.10;;;;;;5125305;28;20242;-65
2022/04/23 13:46:58;;;;;;;;;;;16.70;68.60;;;;;;5106929;28;19990;-64
2022/04/23 13:49:24;;;;;;;;;;;16.50;68.50;;;;;;5125508;28;19969;-65
2022/04/23 13:51:50;;;;;;;;;;;16.80;67.10;;;;;;5107115;28;20206;-65
2022/04/23 13:54:16;;;;;;;;;;;17.10;67.50;;;;;;5107397;28;19908;-64
2022/04/23 13:56:42;;;;;;;;;;;17.40;64.60;;;;;;5106948;28;19949;-64
2022/04/23 13:59:11;;;;;;;;;;;17.50;62.90;;;;;;5105864;28;20295;-65
2022/04/23 14:01:37;;;;;;;;;;;17.50;64.20;;;;;;5122174;28;19908;-65
2022/04/23 14:12:16;;;;;;;;;;;17.40;62.00;;;;;;5121812;28;19922;-65
2022/04/23 14:14:42;;;;;;;;;;;17.40;62.20;;;;;;5125252;28;19908;-65
2022/04/23 14:17:08;;;;;;;;;;;17.40;63.10;;;;;;5124742;28;19973;-65
2022/04/23 14:19:34;;;;;;;;;;;17.30;62.20;;;;;;5122027;28;19911;-65
2022/04/23 14:22:00;;;;;;;;;;;17.00;63.40;;;;;;5124645;28;19960;-65
2022/04/23 14:24:25;;;;;;;;;;;16.70;64.30;;;;;;5106610;28;19939;-65
2022/04/23 14:26:51;;;;;;;;;;;16.50;62.20;;;;;;5124950;28;19952;-65
2022/04/23 14:29:17;;;;;;;;;;;16.50;63.60;;;;;;5124603;28;19919;-64
2022/04/23 14:31:42;;;;;;;;;;;16.70;64.50;;;;;;5124433;28;19908;-66
2022/04/23 14:34:08;;;;;;;;;;;16.90;62.00;;;;;;5119108;28;19916;-70
2022/04/23 14:36:34;;;;;;;;;;;17.00;64.70;;;;;;5106559;28;20148;-66
2022/04/23 14:39:01;;;;;;;;;;;17.00;62.20;;;;;;5122577;28;19990;-66
2022/04/23 14:41:26;;;;;;;;;;;17.20;61.40;;;;;;5123462;28;20316;-67
2022/04/23 14:43:52;;;;;;;;;;;17.40;63.00;;;;;;5124471;28;19915;-67
2022/04/23 14:46:18;;;;;;;;;;;17.40;60.20;;;;;;5124654;28;19916;-67
2022/04/23 14:48:45;;;;;;;;;;;17.50;61.30;;;;;;5122913;28;20140;-66
2022/04/23 14:53:55;;;;;;;;;;;17.60;59.50;;;;;;5122353;28;20182;-68
2022/04/23 14:56:21;;;;;;;;;;;17.40;62.00;;;;;;5124101;28;19908;-70
2022/04/23 14:58:47;;;;;;;;;;;17.20;60.20;;;;;;5122481;28;20171;-67
2022/04/23 15:01:13;;;;;;;;;;;17.20;60.40;;;;;;5119147;28;19919;-67
2022/04/23 15:03:41;;;;;;;;;;;17.40;59.60;;;;;;5106018;28;19985;-67
2022/04/23 15:06:07;;;;;;;;;;;17.50;60.30;;;;;;5124038;28;19912;-67
2022/04/23 15:08:33;;;;;;;;;;;17.50;59.70;;;;;;5123807;28;19922;-67
2022/04/23 15:10:58;;;;;;;;;;;17.70;59.30;;;;;;5123050;28;19947;-67
2022/04/23 15:13:24;;;;;;;;;;;17.90;59.70;;;;;;5123446;28;20195;-68
2022/04/23 15:15:50;;;;;;;;;;;17.80;59.00;;;;;;5105549;28;19953;-67
2022/04/23 15:18:15;;;;;;;;;;;17.90;59.20;;;;;;5122291;28;20145;-68